Siloam Springs, AR

01:41 CDT je la 02an de septembro 2014 (GMT -0500)
Gentry AR Weather | Change Station
CLOSE
Current Station
Personaj Veter-Stacioj
Location: Gentry, AR
Alteco: 1204 ft
Najbaraj veter-stacioj
Aktiva averto: Severe Thunderstorm Watch

Elev 1204 ft 36.25 °N, 94.49 °W | Updated 14 minutes ago

Sennuba
Sennuba
75.3 °F
Sentas kiel 76 °F
N
2.0
Vento Varianta Vento from OrSOr
Gusts 7.0 mej/h

hodiaŭ
High -- | Low -- °F
--% Ebla precip.
hieraŭ
High -- | Low -- °F
Precip. -- co
6:50 AM 7:44 PM
Kreskanta Lunarko, 48% visible
Aerpremo 29.88 co
Vidodistanco 10.0 mejloj
Nuboj Sennuba
Varmindico 76 °F
Rosopunkto 70 °F
Humido 84%
Pluvokvanto 0.00 co
Neĝprofundo Not available.
UV 0 out of 12
Pollen 10.90 out of 12
Aerkvalito Not available.
Flu Activity Not available.
METAR KXNA 020553Z AUTO 11007KT 10SM CLR 24/21 A2992 RMK AO2 RAB05E23 SLP116 P0000 60000 T02440211 10300 20239 403170183 50001 $

More Conditions Fewer Conditions

Aerpremo 29.88 co
Vidodistanco 10.0 mejloj
Nuboj Sennuba
Varmindico 76 °F
Rosopunkto 70 °F
Humido 84%
Pluvokvanto 0.00 co
Neĝprofundo Not available.
UV 0 out of 12
Pollen 10.90 out of 12
Aerkvalito Not available.
Flu Activity Not available.
METAR KXNA 020553Z AUTO 11007KT 10SM CLR 24/21 A2992 RMK AO2 RAB05E23 SLP116 P0000 60000 T02440211 10300 20239 403170183 50001 $

More Conditions Fewer Conditions

Nowcast | as of 12:54 am CDT on September 2, 2014

At 12:55 am...National Weather Service radars indicated scattered showers and thunderstorms continuing across southeast Kansas... just north of the Oklahoma border. Movement of this activity was to the east southeast at about 30 mph. Through 2:30 am...showers and thunderstorms will likely spread further southward into northeast Oklahoma. Some storms may be strong... producing large hail and damaging winds... although the threat of severe weather will continue to decrease with time overnight.

×

10-Day Weather Forecast

Almanac

Astronomio

Sep. 02, 2014 Leviĝo Subiro
Aktuala tempo 06:50 CDT 19:44 CDT
Civila krepusko 06:24 CDT 20:10 CDT
Naŭtika krepusko 05:53 CDT 20:41 CDT
Astronomia krepusko 05:21 CDT 21:13 CDT
Luno 14:22 CDT Sen lunsubiro
Daŭro de videbla lumo 13h 46m
Daŭro de tago
12h 53m
Tomorrow will be 2m 13s shorter.
Kreskanta Lunarko, 48% of the Moon is Illuminated
hodiaŭ
Kreskanta Lunarko
Sep 2
Unua kvaronluno
Sep 8
Plenlumo
Sep 15
Lasta kvaronluno
Sep 24
Nova

Hodiaŭaj ekstremaĵoj

State Highs State Lows

Community

WunderPhotos

Upload Photos

1,749,589 photos uploaded!

WunderBlogs® & News

Nearby

Neĝa profundeco

Station Depth Alteco
No new snow has been reported.

Earthquake Activity

Urbo Distance Mag. Time & Date
No recent earthquake activity has been reported nearby.
Minimum magnitude displayed is 2.5.

Coastal Water Temperatures

Loko Temperaturo
No Stations Reporting

Najbaraj veter-stacioj